UKKMUKLI [248B]

Details From UKKM - Antonov Intl
To UKLI - Ivano Frankivsk Intl
Flight Number 248B
Tags Real Commercial Decoded
Created
Modified
Stats Distance 178 nm / 330 km
Max Altitude 0 ft / 0 m
Waypoints 5
Social Downloads 6
Likes 0
Share VATSIM

Download

Looking for another format? Having issues loading an existing format? Contact us
Advertisement - Login to hide

Notes

Decoded

Route

BUDUK SORON BAGSA ILTUK IF

ID Type Via Altitude Latitude Longitude Leg Dist Tot Dist Heading (true) Name
O BUDUK FIX - 0 ft / 0 m 50.04141˚ 28.96044˚ - 0 nm - -
SORON FIX - 0 ft / 0 m 49.76139˚ 27.84822˚ 46 nm 46 nm 249° / 248° -
BAGSA FIX - 0 ft / 0 m 49.26163˚ 25.99906˚ 78 nm 124 nm 248° / 247° -
ILTUK FIX - 0 ft / 0 m 49.11967˚ 25.49989˚ 21 nm 145 nm 247° / 246° -
O IF NDB - 0 ft / 0 m 48.87132˚ 24.75990˚ 32 nm 178 nm 243° / 243° IVANO-FRANKOVSK NDB

Altitude Profile

Advertisement - Login to hide

Weather


0- 5 10 15 20 25 30 35+ Temperature / ° C

Clouds and Precipitation
Forecast for 2018-05-23 12:00 UTC. Updated 10 minutes ago

Ground ~20,000 ft ~40,000 ft Winds

UKKM

Details ICAO UKKM (GML)
Name ANTONOV INTL
Region Ukraine
Timezone Europe/Kiev (UTC+3.0)
Stats Elevation 517 ft / 158 m (AMSL)
Location 50.603496° 30.191932°
Runways 1
Magnetic Variation 7.651° E

METAR

UKKM 231130Z 10003MPS 050V160 CAVOK 25/08 Q1022 R33/CLRD70 NOSIG

Decode

TAF

Not found

Departure Runways

ID Width Length Bearing (true) Bearing (mag) Surface Threshold Offset Overrun Length
15 184 ft / 56 m 11,472 ft / 3,497 m 154.51° 146.86° Concrete 0 ft / 0 m 240 ft / 73 m
33 184 ft / 56 m 11,472 ft / 3,497 m 334.53° 326.88° Concrete 0 ft / 0 m 377 ft / 115 m

UKLI

Details ICAO UKLI (IFO)
Name IVANO FRANKIVSK INTL
Region Ukraine
Timezone Europe/Kiev (UTC+3.0)
Stats Elevation 919 ft / 280 m (AMSL)
Location 48.884167° 24.686667°
Runways 1
Magnetic Variation 6.135° E

METAR

UKLI 231130Z 09003MPS 060V150 CAVOK 25/12 Q1020 R10/090070 NOSIG

Decode

TAF

Not found

Destination Runways

ID Width Length Bearing (true) Bearing (mag) Surface Threshold Offset Overrun Length
10 144 ft / 44 m 8,204 ft / 2,501 m 102.84° 96.70° Concrete 0 ft / 0 m 0 ft / 0 m
28 144 ft / 44 m 8,204 ft / 2,501 m 282.86° 276.72° Concrete 0 ft / 0 m 0 ft / 0 m

Approach Navaids

Runway Type Ident Frequency Range Bearing (true) Bearing (mag) Slope Elevation
10 Localiser IIV 108.70 MHz 18 nm / 33 km 103.85° 97.72° - 919 ft / 280 m (AMSL)
10 Glidescope IIV 108.70 MHz 10 nm / 19 km 102.85° 96.71° 3.00° 919 ft / 280 m (AMSL)
28 Localiser IIF 109.30 MHz 18 nm / 33 km 283.06° 276.93° - 919 ft / 280 m (AMSL)
28 Glidescope IIF 109.30 MHz 10 nm / 19 km 282.85° 276.71° 3.00° 919 ft / 280 m (AMSL)

Popular Alternatives